Forside
METAR-TAF:

METAR-TAF

Lufthavne :

Göteborg-Landvetter Airport

Göteborg-Landvetter, Sverige

Breddekreds: 57-40N, længdekreds: 012-18E, højde: 169 m

Aktuelle vejr

Denne rapport blev lavet for 26 minutter siden, kl. 23:50 UTC
Vind 2 kt fra vestsydvest
Temperatur 1°C
Fugtighed 93%
Tryk 1025 hPa
Sigt: 0100 m
tåge

METAR: ESGG 222350Z 25002KT 0100 R03/0700N R21/0500N FG VV002 01/00 Q1025

Tid: 01:16 (00:16 UTC)

Vejrudsigter

Denne rapport blev lavet for 46 minutter siden, kl. 23:30 UTC
Foreløbig gælder fra 23 på 00 UTC til 23 på 24 UTC
Vind 6 kt fra syd
Sigt: 0100 m
Overskyet i en højde af 200 ft
tåge
Sandsynlighed 40%
fra 23 på 00 UTC til 23 på 24 UTC
Sigt: 2000 m
Brudte skyer i en højde af 700 ft
dis

TAF: ESGG 222330Z 2300/2324 18006KT 0100 FG OVC002 PROB40 2300/2324 2000 BR BKN007

Vejrobservationer og prognoser fra mere end 4000 lufthavne (METAR og TAF).

De gule og røde prikker repræsenterer de meteorologiske stationer.

Flyt musen over at se navnet på stationen.

Så klik over at se vejr observationer og prognoser.

At skifte det kort: Klik på de grønne knapper med et sort kors for at zoome ind; på den grønne knap med en bindestreg for at zoome ud; eller på de grønne pile for tilstødende kort.


METAR-TAF: